createdAt,value
2017-06-12T03:31:07.438Z,4.37
2017-06-12T03:33:35.098Z,4.07
2017-06-12T03:36:02.740Z,4.70
2017-06-12T03:38:37.646Z,3.83
2017-06-12T03:41:05.294Z,4.30
2017-06-12T03:43:32.957Z,3.77
2017-06-12T03:46:00.948Z,3.90
2017-06-12T03:48:29.357Z,4.27
2017-06-12T03:50:56.986Z,6.40
2017-06-12T03:53:24.974Z,3.53
2017-06-12T03:55:52.630Z,3.73
2017-06-12T03:58:21.043Z,3.83
2017-06-12T04:00:49.093Z,3.60
2017-06-12T04:03:16.924Z,4.20
2017-06-12T04:05:44.593Z,4.33
2017-06-12T04:08:12.585Z,3.73
2017-06-12T04:10:40.251Z,5.00
2017-06-12T04:13:07.972Z,4.97
2017-06-12T04:15:36.009Z,4.20
2017-06-12T04:18:03.665Z,4.90
2017-06-12T04:20:31.317Z,4.40
2017-06-12T04:22:59.387Z,5.40
2017-06-12T04:25:27.037Z,5.00
2017-06-12T04:27:54.684Z,4.60
2017-06-12T04:30:23.480Z,5.50
2017-06-12T04:32:51.905Z,4.20
2017-06-12T04:35:20.703Z,4.43
2017-06-12T04:37:48.712Z,4.90
2017-06-12T04:40:17.096Z,4.60
2017-06-12T04:42:46.472Z,5.30
2017-06-12T04:45:14.470Z,4.67
2017-06-12T04:47:42.910Z,4.70
2017-06-12T04:50:10.587Z,5.17
2017-06-12T04:52:38.563Z,4.63
2017-06-12T04:55:06.197Z,4.57
2017-06-12T04:57:33.839Z,4.20
2017-06-12T05:00:01.877Z,5.13
2017-06-12T05:02:30.296Z,4.80
2017-06-12T05:04:57.964Z,5.20
2017-06-12T05:07:25.996Z,4.43
2017-06-12T05:09:53.643Z,4.60
2017-06-12T05:12:22.070Z,4.60
2017-06-12T05:14:50.105Z,5.00
2017-06-12T05:17:18.525Z,5.27
2017-06-12T05:19:46.176Z,5.07
2017-06-12T05:22:14.168Z,4.60
2017-06-12T05:24:41.822Z,4.70
2017-06-12T05:27:09.481Z,4.73
2017-06-12T05:29:37.506Z,4.97
2017-06-12T05:32:05.181Z,4.67
2017-06-12T05:34:32.841Z,4.50
2017-06-12T05:37:00.908Z,3.93
2017-06-12T05:39:28.562Z,4.30
2017-06-12T05:41:57.054Z,4.80
2017-06-12T05:44:25.125Z,5.00
2017-06-12T05:46:52.783Z,4.23
2017-06-12T05:49:20.446Z,4.70
2017-06-12T05:51:48.505Z,4.17
2017-06-12T05:54:16.933Z,4.87
2017-06-12T05:56:44.569Z,4.50
2017-06-12T05:59:12.635Z,4.10
2017-06-12T06:01:40.290Z,4.07
2017-06-12T06:04:07.948Z,4.40
2017-06-12T06:06:36.020Z,4.27
2017-06-12T06:09:03.668Z,4.63
2017-06-12T06:11:32.083Z,4.73
2017-06-12T06:14:00.169Z,4.10
2017-06-12T06:16:27.818Z,4.37
2017-06-12T06:18:55.462Z,4.00
2017-06-12T06:21:23.613Z,4.40
2017-06-12T06:23:52.027Z,4.30
2017-06-12T06:26:19.674Z,5.20
2017-06-12T06:28:47.725Z,3.83
2017-06-12T06:31:16.157Z,4.17
2017-06-12T06:33:43.812Z,4.10
2017-06-12T06:36:11.784Z,4.13
2017-06-12T06:38:39.431Z,4.20
2017-06-12T06:41:07.095Z,4.37
2017-06-12T06:43:35.141Z,4.60
2017-06-12T06:46:03.607Z,4.30
2017-06-12T06:48:31.238Z,4.20
2017-06-12T06:50:59.254Z,4.50
2017-06-12T06:53:27.694Z,3.77
2017-06-12T06:55:55.343Z,4.73
2017-06-12T06:58:23.377Z,4.17
2017-06-12T07:00:51.017Z,4.37
2017-06-12T07:03:19.429Z,4.47
2017-06-12T07:05:47.473Z,4.43
2017-06-12T07:08:15.962Z,4.77
2017-06-12T07:10:43.609Z,4.30
2017-06-12T07:13:12.401Z,4.10
2017-06-12T07:15:40.102Z,4.60
2017-06-12T07:18:07.762Z,4.80
2017-06-12T07:20:35.794Z,4.20
2017-06-12T07:23:03.440Z,4.80
2017-06-12T07:25:31.098Z,4.30
2017-06-12T07:27:59.100Z,4.27
2017-06-12T07:30:27.524Z,4.00
2017-06-12T07:32:55.200Z,4.73
2017-06-12T07:35:23.324Z,4.00
2017-06-12T07:37:50.960Z,4.40
2017-06-12T07:40:19.393Z,4.43
2017-06-12T07:42:47.522Z,4.37
2017-06-12T07:45:16.036Z,3.90
2017-06-12T07:47:43.669Z,4.60
2017-06-12T07:50:12.468Z,3.73
2017-06-12T07:52:40.111Z,4.70
2017-06-12T07:55:08.533Z,4.67
2017-06-12T07:57:36.585Z,4.53
2017-06-12T08:00:04.232Z,4.50
2017-06-12T08:02:32.637Z,4.77
2017-06-12T08:05:00.709Z,4.20
2017-06-12T08:07:28.384Z,4.00
2017-06-12T08:09:56.037Z,4.20
2017-06-12T08:12:24.083Z,4.13
2017-06-12T08:14:51.727Z,3.80
2017-06-12T08:17:20.153Z,4.80
2017-06-12T08:19:48.192Z,4.37
2017-06-12T08:22:15.856Z,3.87
2017-06-12T08:24:43.562Z,3.77
2017-06-12T08:27:11.543Z,3.93
2017-06-12T08:29:39.192Z,4.00
2017-06-12T08:32:06.842Z,3.60
2017-06-12T08:34:34.876Z,3.83
2017-06-12T08:37:03.490Z,3.17
2017-06-12T08:39:31.260Z,3.40
2017-06-12T08:41:59.288Z,3.30
2017-06-12T08:44:27.689Z,3.97
2017-06-12T08:46:55.368Z,3.47
2017-06-12T08:49:23.532Z,3.50
2017-06-12T08:51:51.170Z,3.93
2017-06-12T08:54:19.762Z,3.10
2017-06-12T08:56:47.975Z,3.07
2017-06-12T08:59:15.820Z,2.80
2017-06-12T09:01:43.489Z,3.30
2017-06-12T09:04:11.144Z,3.30
2017-06-12T09:06:38.828Z,3.30
2017-06-12T09:09:06.487Z,3.30
2017-06-12T09:11:34.886Z,3.40
2017-06-12T09:14:02.572Z,4.80
2017-06-12T09:16:31.097Z,3.03
2017-06-12T09:18:59.077Z,3.67
2017-06-12T09:21:26.756Z,4.40
2017-06-12T09:23:54.506Z,3.50
2017-06-12T09:26:22.547Z,4.20
2017-06-12T09:28:50.171Z,3.63
2017-06-12T09:31:18.031Z,3.40
2017-06-12T09:33:46.160Z,3.30
2017-06-12T09:36:13.824Z,3.40
2017-06-12T09:38:41.633Z,3.77
2017-06-12T09:41:09.591Z,3.83
2017-06-12T09:43:37.236Z,3.60
2017-06-12T09:46:04.890Z,3.60
2017-06-12T09:48:32.904Z,3.60
2017-06-12T09:51:00.556Z,3.60
2017-06-12T09:53:28.228Z,3.13
2017-06-12T09:55:55.957Z,3.50
2017-06-12T09:58:23.625Z,4.20
2017-06-12T10:00:51.292Z,3.40
2017-06-12T10:03:18.949Z,3.13
2017-06-12T10:05:47.190Z,3.63
2017-06-12T10:08:14.976Z,3.77
2017-06-12T10:10:43.725Z,3.30
2017-06-12T10:13:12.191Z,3.23
2017-06-12T10:15:40.624Z,3.53
2017-06-12T10:18:08.301Z,3.93
2017-06-12T10:20:35.973Z,3.73
2017-06-12T10:23:03.645Z,3.60
2017-06-12T10:25:31.353Z,3.47
2017-06-12T10:28:00.236Z,3.37
2017-06-12T10:30:28.765Z,3.57
2017-06-12T10:32:56.461Z,3.00
2017-06-12T10:35:25.148Z,3.70
2017-06-12T10:37:53.583Z,3.60
2017-06-12T10:40:21.326Z,3.57
2017-06-12T10:42:48.981Z,3.50
2017-06-12T10:45:17.004Z,3.43
2017-06-12T10:47:44.795Z,3.33
2017-06-12T10:50:12.779Z,3.40
2017-06-12T10:52:40.998Z,3.37
2017-06-12T10:55:11.926Z,3.40
2017-06-12T10:57:57.376Z,3.40
2017-06-12T11:00:25.379Z,6.10
2017-06-12T11:02:54.128Z,3.33
2017-06-12T11:05:21.785Z,3.30
2017-06-12T11:07:49.501Z,3.10
2017-06-12T11:10:19.982Z,3.47
2017-06-12T11:12:47.994Z,4.10
2017-06-12T11:15:15.692Z,3.80
2017-06-12T11:17:44.171Z,3.50
2017-06-12T11:20:12.695Z,4.93
2017-06-12T11:22:40.357Z,3.70
2017-06-12T11:25:08.045Z,4.40
2017-06-12T11:27:35.929Z,4.00
2017-06-12T11:30:06.210Z,4.20
2017-06-12T11:32:34.033Z,4.30
2017-06-12T11:35:02.287Z,3.93
2017-06-12T11:37:29.943Z,4.37
2017-06-12T11:39:57.966Z,4.53
2017-06-12T11:42:25.655Z,4.00
2017-06-12T11:44:53.380Z,4.43
2017-06-12T11:47:21.713Z,4.87
2017-06-12T11:49:49.368Z,4.63
2017-06-12T11:52:17.013Z,4.50
2017-06-12T11:54:45.062Z,5.17
2017-06-12T11:57:12.702Z,4.50
2017-06-12T11:59:40.478Z,4.67
2017-06-12T12:02:09.269Z,4.73
2017-06-12T12:04:36.930Z,4.80
2017-06-12T12:07:05.361Z,8.80
2017-06-12T12:09:33.486Z,9.00
2017-06-12T12:12:01.170Z,5.90
2017-06-12T12:14:28.815Z,6.70
2017-06-12T12:16:56.797Z,5.97
2017-06-12T12:19:24.649Z,6.27
2017-06-12T12:21:52.304Z,6.70
2017-06-12T12:24:20.005Z,7.10
2017-06-12T12:26:47.685Z,5.97
2017-06-12T12:29:15.353Z,6.43
2017-06-12T12:31:43.036Z,7.30
2017-06-12T12:34:10.760Z,7.20
2017-06-12T12:36:38.415Z,6.83
2017-06-12T12:39:06.679Z,6.90
2017-06-12T12:41:34.340Z,7.57
2017-06-12T12:44:02.006Z,7.00
2017-06-12T12:46:29.664Z,5.50
2017-06-12T12:48:57.323Z,7.67
2017-06-12T12:51:24.996Z,6.10
2017-06-12T12:53:52.660Z,7.00
2017-06-12T12:56:20.336Z,5.90
2017-06-12T12:58:47.977Z,5.60
2017-06-12T13:01:15.674Z,6.17
2017-06-12T13:03:43.779Z,5.27
2017-06-12T13:06:12.194Z,5.43
2017-06-12T13:08:39.851Z,5.47
2017-06-12T13:11:07.524Z,6.17
2017-06-12T13:13:35.171Z,5.27
2017-06-12T13:16:03.234Z,6.10
2017-06-12T13:18:30.884Z,5.00
2017-06-12T13:20:59.293Z,5.90
2017-06-12T13:23:27.330Z,5.90
2017-06-12T13:25:55.773Z,5.57
2017-06-12T13:28:23.455Z,4.70
2017-06-12T13:30:51.132Z,5.33
2017-06-12T13:33:19.544Z,4.93
2017-06-12T13:35:47.582Z,4.87
2017-06-12T13:38:15.994Z,5.00
2017-06-12T13:40:43.684Z,5.13
2017-06-12T13:43:11.705Z,4.73
2017-06-12T13:45:39.351Z,5.73
2017-06-12T13:48:07.771Z,4.30
2017-06-12T13:50:35.829Z,4.23
2017-06-12T13:53:03.479Z,4.87
2017-06-12T13:55:31.133Z,3.90
2017-06-12T13:57:59.869Z,3.97
2017-06-12T14:00:27.524Z,3.90
2017-06-12T14:02:55.180Z,3.47
2017-06-12T14:05:23.151Z,4.23
2017-06-12T14:07:50.792Z,3.63
2017-06-12T14:10:18.455Z,4.10
2017-06-12T14:12:46.517Z,4.10
2017-06-12T14:15:14.169Z,4.00
2017-06-12T14:17:42.590Z,4.00
2017-06-12T14:20:10.629Z,4.10
2017-06-12T14:22:38.286Z,4.17
2017-06-12T14:25:07.368Z,3.83
2017-06-12T14:27:36.365Z,3.47
2017-06-12T14:30:04.949Z,4.10
2017-06-12T14:32:33.515Z,3.77
2017-06-12T14:35:01.228Z,3.77
2017-06-12T14:37:29.251Z,3.60
2017-06-12T14:39:57.010Z,3.77
2017-06-12T14:42:24.645Z,4.23
2017-06-12T14:44:52.313Z,3.53
2017-06-12T14:47:19.961Z,3.67
2017-06-12T14:49:48.290Z,3.80
2017-06-12T14:52:16.734Z,3.70
2017-06-12T14:54:44.571Z,3.53
2017-06-12T14:57:12.229Z,4.40
2017-06-12T14:59:40.738Z,3.83
2017-06-12T15:02:08.552Z,3.27
2017-06-12T15:04:36.965Z,4.13
2017-06-12T15:07:04.739Z,3.50
2017-06-12T15:09:32.520Z,2.90
2017-06-12T15:12:00.519Z,3.17
2017-06-12T15:14:28.939Z,2.83
2017-06-12T15:16:56.613Z,2.90
2017-06-12T15:19:24.370Z,3.37
2017-06-12T15:21:52.028Z,2.93
2017-06-12T15:24:19.995Z,3.43
2017-06-12T15:26:47.666Z,3.03
2017-06-12T15:29:15.303Z,3.27
2017-06-12T15:31:42.969Z,2.90
2017-06-12T15:34:10.688Z,3.10
2017-06-12T15:36:38.430Z,2.90
2017-06-12T15:39:06.092Z,2.90
2017-06-12T15:41:34.135Z,2.80
2017-06-12T15:44:01.813Z,2.83
2017-06-12T15:46:29.462Z,2.80
2017-06-12T15:48:57.208Z,2.63
2017-06-12T15:51:24.895Z,2.47
2017-06-12T15:53:52.565Z,3.17
2017-06-12T15:56:20.324Z,3.13
2017-06-12T15:58:47.993Z,3.63
2017-06-12T16:01:15.652Z,3.10
2017-06-12T16:03:43.697Z,2.50
2017-06-12T16:06:11.563Z,2.03
2017-06-12T16:08:39.212Z,2.47
2017-06-12T16:11:07.707Z,2.17
2017-06-12T16:13:35.427Z,2.07
2017-06-12T16:16:03.083Z,2.50
2017-06-12T16:18:30.739Z,2.07
2017-06-12T16:20:58.787Z,1.90
2017-06-12T16:23:26.416Z,2.50
2017-06-12T16:25:54.839Z,2.00
2017-06-12T16:28:22.520Z,1.53
2017-06-12T16:30:50.191Z,1.70
2017-06-12T16:33:17.940Z,2.00
2017-06-12T16:35:45.588Z,1.90
2017-06-12T16:38:13.395Z,1.70
2017-06-12T16:40:41.059Z,1.80
2017-06-12T16:43:09.885Z,1.57
2017-06-12T16:45:37.524Z,1.70
2017-06-12T16:48:05.951Z,1.50
2017-06-12T16:50:33.639Z,1.60
2017-06-12T16:53:01.275Z,2.10
2017-06-12T16:55:28.941Z,2.00
2017-06-12T16:57:56.611Z,2.00
2017-06-12T17:00:24.275Z,1.70
2017-06-12T17:02:51.915Z,1.97
2017-06-12T17:05:20.211Z,1.87
2017-06-12T17:07:47.902Z,3.07
2017-06-12T17:10:16.389Z,1.70
2017-06-12T17:12:44.833Z,1.60
2017-06-12T17:15:12.568Z,1.70
2017-06-12T17:17:40.316Z,1.33
2017-06-12T17:20:08.002Z,1.60
2017-06-12T17:22:36.032Z,1.63
2017-06-12T17:25:04.461Z,2.00
2017-06-12T17:27:32.197Z,2.70
2017-06-12T17:29:59.874Z,3.70
2017-06-12T17:32:27.543Z,2.43
2017-06-12T17:34:55.325Z,1.57
2017-06-12T17:37:23.055Z,1.37
2017-06-12T17:39:50.734Z,1.40
2017-06-12T17:42:18.492Z,1.93
2017-06-12T17:44:47.144Z,1.70
2017-06-12T17:47:15.565Z,2.63
2017-06-12T17:49:43.229Z,3.10
2017-06-12T17:52:10.909Z,3.77
2017-06-12T17:54:38.557Z,2.10
2017-06-12T17:57:06.798Z,2.80
2017-06-12T17:59:34.515Z,2.60
2017-06-12T18:02:02.147Z,2.03
2017-06-12T18:04:30.191Z,2.40
2017-06-12T18:06:58.138Z,2.10
2017-06-12T18:09:25.866Z,2.33
2017-06-12T18:11:53.553Z,2.47
2017-06-12T18:14:21.256Z,1.90
2017-06-12T18:16:49.325Z,2.30
2017-06-12T18:19:16.978Z,3.60
2017-06-12T18:21:44.632Z,3.23
2017-06-12T18:24:13.421Z,22.97
2017-06-12T18:26:41.850Z,5.10
2017-06-12T18:29:09.498Z,5.10
2017-06-12T18:31:37.481Z,2.70
2017-06-12T18:34:05.127Z,2.57
2017-06-12T18:36:32.940Z,3.33
2017-06-12T18:39:00.961Z,4.30
2017-06-12T18:41:28.612Z,4.37
2017-06-12T18:43:56.264Z,5.83
2017-06-12T18:46:24.315Z,4.50
2017-06-12T18:48:52.729Z,10.00
2017-06-12T18:51:20.394Z,7.97
2017-06-12T18:53:48.451Z,6.90
2017-06-12T18:56:16.105Z,5.60
2017-06-12T18:58:43.764Z,9.77
2017-06-12T19:01:11.788Z,12.10
2017-06-12T19:03:39.459Z,6.93
2017-06-12T19:06:07.121Z,6.00
2017-06-12T19:08:35.139Z,7.00
2017-06-12T19:11:03.266Z,6.10
2017-06-12T19:13:30.934Z,10.23
2017-06-12T19:15:59.056Z,10.70
2017-06-12T19:18:26.775Z,9.80
2017-06-12T19:20:54.448Z,12.60
2017-06-12T19:23:23.265Z,10.90
2017-06-12T19:25:50.947Z,11.97
2017-06-12T19:28:19.500Z,10.87
2017-06-12T19:30:47.573Z,23.73
2017-06-12T19:33:15.229Z,23.60
2017-06-12T19:35:42.907Z,22.48
2017-06-12T19:38:11.008Z,21.20
2017-06-12T19:40:38.744Z,20.80
2017-06-12T19:43:06.421Z,19.00
2017-06-12T19:45:34.552Z,17.17
2017-06-12T19:48:02.221Z,5.00
2017-06-12T19:50:30.787Z,5.20
2017-06-12T19:52:59.930Z,3.73
2017-06-12T19:55:27.634Z,6.13
2017-06-12T19:57:55.335Z,7.27
2017-06-12T20:00:22.982Z,6.13
2017-06-12T20:02:51.890Z,7.00
2017-06-12T20:05:19.546Z,7.57
2017-06-12T20:07:47.654Z,6.57
2017-06-12T20:10:15.525Z,3.20
2017-06-12T20:25:48.301Z,2.70
2017-06-12T20:28:15.962Z,10.97
2017-06-12T20:30:43.680Z,15.03
2017-06-12T20:33:12.049Z,10.17
2017-06-12T20:35:40.529Z,11.40
2017-06-12T20:38:09.381Z,7.20
2017-06-12T20:40:37.601Z,7.23
2017-06-12T20:43:06.096Z,4.10
2017-06-12T20:45:33.732Z,3.90
2017-06-12T20:48:02.156Z,3.57
2017-06-12T20:50:30.008Z,3.33
2017-06-12T20:52:57.683Z,2.70
2017-06-12T20:55:25.448Z,3.27
2017-06-12T20:57:53.485Z,3.90
2017-06-12T21:00:21.886Z,4.83
2017-06-12T21:02:49.571Z,5.00
2017-06-12T21:05:17.242Z,3.90
2017-06-12T21:07:44.983Z,3.47
2017-06-12T21:10:12.678Z,2.97
2017-06-12T21:12:40.340Z,4.53
2017-06-12T21:15:08.136Z,3.67
2017-06-12T21:17:36.541Z,4.87
2017-06-12T21:20:05.217Z,4.43
2017-06-12T21:22:32.856Z,3.20
2017-06-12T21:25:01.299Z,4.07
2017-06-12T21:27:28.965Z,2.10
2017-06-12T21:29:56.615Z,1.40
